sensor_id;sensor_type;location;lat;lon;timestamp;P1;durP1;ratioP1;P2;durP2;ratioP2
18090;SDS011;9172;49.948;9.208;2023-06-14T00:00:29;5.67;;;2.93;;
18090;SDS011;9172;49.948;9.208;2023-06-14T00:03:00;7.30;;;2.70;;
18090;SDS011;9172;49.948;9.208;2023-06-14T00:05:30;4.67;;;3.23;;
18090;SDS011;9172;49.948;9.208;2023-06-14T00:08:01;4.63;;;2.70;;
18090;SDS011;9172;49.948;9.208;2023-06-14T00:10:33;8.17;;;3.40;;
18090;SDS011;9172;49.948;9.208;2023-06-14T00:13:02;4.73;;;2.50;;
18090;SDS011;9172;49.948;9.208;2023-06-14T00:15:31;4.17;;;2.53;;
18090;SDS011;9172;49.948;9.208;2023-06-14T00:18:00;6.90;;;3.23;;
18090;SDS011;9172;49.948;9.208;2023-06-14T00:20:29;6.23;;;3.30;;
18090;SDS011;9172;49.948;9.208;2023-06-14T00:22:59;5.60;;;2.90;;
18090;SDS011;9172;49.948;9.208;2023-06-14T00:25:29;7.93;;;2.90;;
18090;SDS011;9172;49.948;9.208;2023-06-14T00:27:59;5.47;;;3.20;;
18090;SDS011;9172;49.948;9.208;2023-06-14T00:30:29;6.77;;;2.90;;
18090;SDS011;9172;49.948;9.208;2023-06-14T00:32:58;4.33;;;2.60;;
18090;SDS011;9172;49.948;9.208;2023-06-14T00:35:28;4.97;;;2.50;;
18090;SDS011;9172;49.948;9.208;2023-06-14T00:37:57;12.50;;;3.07;;
18090;SDS011;9172;49.948;9.208;2023-06-14T00:40:26;3.70;;;2.67;;
18090;SDS011;9172;49.948;9.208;2023-06-14T00:42:55;4.47;;;2.90;;
18090;SDS011;9172;49.948;9.208;2023-06-14T00:45:23;6.27;;;3.37;;
18090;SDS011;9172;49.948;9.208;2023-06-14T00:47:53;5.10;;;2.70;;
18090;SDS011;9172;49.948;9.208;2023-06-14T00:50:23;7.03;;;2.80;;
18090;SDS011;9172;49.948;9.208;2023-06-14T00:53:00;4.57;;;2.90;;
18090;SDS011;9172;49.948;9.208;2023-06-14T00:55:29;6.17;;;2.73;;
18090;SDS011;9172;49.948;9.208;2023-06-14T00:57:59;3.60;;;2.50;;
18090;SDS011;9172;49.948;9.208;2023-06-14T01:00:28;7.27;;;2.60;;
18090;SDS011;9172;49.948;9.208;2023-06-14T01:03:06;7.80;;;3.47;;
18090;SDS011;9172;49.948;9.208;2023-06-14T01:05:36;4.20;;;2.63;;
18090;SDS011;9172;49.948;9.208;2023-06-14T01:08:11;3.43;;;2.50;;
18090;SDS011;9172;49.948;9.208;2023-06-14T01:10:46;5.03;;;2.70;;
18090;SDS011;9172;49.948;9.208;2023-06-14T01:13:20;6.90;;;2.70;;
18090;SDS011;9172;49.948;9.208;2023-06-14T01:15:52;7.67;;;2.57;;
18090;SDS011;9172;49.948;9.208;2023-06-14T01:18:21;6.37;;;3.27;;
18090;SDS011;9172;49.948;9.208;2023-06-14T01:23:28;8.10;;;3.00;;
18090;SDS011;9172;49.948;9.208;2023-06-14T01:25:58;4.53;;;2.90;;
18090;SDS011;9172;49.948;9.208;2023-06-14T01:28:29;5.23;;;2.77;;
18090;SDS011;9172;49.948;9.208;2023-06-14T01:31:00;4.07;;;2.77;;
18090;SDS011;9172;49.948;9.208;2023-06-14T01:33:31;9.93;;;3.30;;
18090;SDS011;9172;49.948;9.208;2023-06-14T01:36:02;5.87;;;2.97;;
18090;SDS011;9172;49.948;9.208;2023-06-14T01:38:33;6.43;;;2.97;;
18090;SDS011;9172;49.948;9.208;2023-06-14T01:41:03;7.13;;;3.00;;
18090;SDS011;9172;49.948;9.208;2023-06-14T01:43:33;8.63;;;3.20;;
18090;SDS011;9172;49.948;9.208;2023-06-14T01:46:03;4.07;;;2.73;;
18090;SDS011;9172;49.948;9.208;2023-06-14T01:48:34;4.60;;;2.93;;
18090;SDS011;9172;49.948;9.208;2023-06-14T01:51:03;8.47;;;2.90;;
18090;SDS011;9172;49.948;9.208;2023-06-14T01:53:31;7.23;;;2.80;;
18090;SDS011;9172;49.948;9.208;2023-06-14T01:56:00;4.20;;;3.00;;
18090;SDS011;9172;49.948;9.208;2023-06-14T01:58:29;4.67;;;3.03;;
18090;SDS011;9172;49.948;9.208;2023-06-14T02:00:58;9.43;;;3.23;;
18090;SDS011;9172;49.948;9.208;2023-06-14T02:03:28;8.60;;;3.10;;
18090;SDS011;9172;49.948;9.208;2023-06-14T02:05:56;8.40;;;3.57;;
18090;SDS011;9172;49.948;9.208;2023-06-14T02:08:25;6.73;;;3.23;;
18090;SDS011;9172;49.948;9.208;2023-06-14T02:10:54;9.70;;;3.47;;
18090;SDS011;9172;49.948;9.208;2023-06-14T02:13:24;6.33;;;3.17;;
18090;SDS011;9172;49.948;9.208;2023-06-14T02:15:52;7.47;;;3.53;;
18090;SDS011;9172;49.948;9.208;2023-06-14T02:18:21;6.97;;;3.10;;
18090;SDS011;9172;49.948;9.208;2023-06-14T02:20:51;5.37;;;3.00;;
18090;SDS011;9172;49.948;9.208;2023-06-14T02:23:20;7.10;;;3.20;;
18090;SDS011;9172;49.948;9.208;2023-06-14T02:25:48;4.60;;;2.90;;
18090;SDS011;9172;49.948;9.208;2023-06-14T02:28:17;4.80;;;3.33;;
18090;SDS011;9172;49.948;9.208;2023-06-14T02:30:46;4.63;;;3.13;;
18090;SDS011;9172;49.948;9.208;2023-06-14T02:33:15;3.80;;;2.80;;
18090;SDS011;9172;49.948;9.208;2023-06-14T02:35:44;9.33;;;3.37;;
18090;SDS011;9172;49.948;9.208;2023-06-14T02:38:13;9.30;;;4.07;;
18090;SDS011;9172;49.948;9.208;2023-06-14T02:40:42;4.23;;;3.17;;
18090;SDS011;9172;49.948;9.208;2023-06-14T02:43:10;4.60;;;3.37;;
18090;SDS011;9172;49.948;9.208;2023-06-14T02:45:40;7.73;;;2.73;;
18090;SDS011;9172;49.948;9.208;2023-06-14T02:48:17;13.80;;;3.43;;
18090;SDS011;9172;49.948;9.208;2023-06-14T02:50:47;4.57;;;2.93;;
18090;SDS011;9172;49.948;9.208;2023-06-14T02:53:16;8.43;;;3.07;;
18090;SDS011;9172;49.948;9.208;2023-06-14T02:55:45;6.13;;;3.17;;
18090;SDS011;9172;49.948;9.208;2023-06-14T02:58:14;5.03;;;3.00;;
18090;SDS011;9172;49.948;9.208;2023-06-14T03:00:45;5.00;;;3.17;;
18090;SDS011;9172;49.948;9.208;2023-06-14T03:03:23;4.23;;;3.10;;
18090;SDS011;9172;49.948;9.208;2023-06-14T03:05:53;7.80;;;3.37;;
18090;SDS011;9172;49.948;9.208;2023-06-14T03:08:23;6.50;;;3.67;;
18090;SDS011;9172;49.948;9.208;2023-06-14T03:10:54;6.50;;;3.47;;
18090;SDS011;9172;49.948;9.208;2023-06-14T03:13:23;5.93;;;3.70;;
18090;SDS011;9172;49.948;9.208;2023-06-14T03:15:52;5.17;;;3.23;;
18090;SDS011;9172;49.948;9.208;2023-06-14T03:20:58;6.20;;;3.23;;
18090;SDS011;9172;49.948;9.208;2023-06-14T03:23:28;5.17;;;3.20;;
18090;SDS011;9172;49.948;9.208;2023-06-14T03:25:57;4.93;;;2.97;;
18090;SDS011;9172;49.948;9.208;2023-06-14T03:28:26;7.67;;;3.60;;
18090;SDS011;9172;49.948;9.208;2023-06-14T03:30:56;9.77;;;3.83;;
18090;SDS011;9172;49.948;9.208;2023-06-14T03:33:24;5.50;;;3.33;;
18090;SDS011;9172;49.948;9.208;2023-06-14T03:35:53;6.67;;;3.50;;
18090;SDS011;9172;49.948;9.208;2023-06-14T03:38:22;4.00;;;2.93;;
18090;SDS011;9172;49.948;9.208;2023-06-14T03:40:51;5.47;;;3.30;;
18090;SDS011;9172;49.948;9.208;2023-06-14T03:43:19;8.20;;;3.33;;
18090;SDS011;9172;49.948;9.208;2023-06-14T03:45:48;8.13;;;3.20;;
18090;SDS011;9172;49.948;9.208;2023-06-14T03:50:53;8.10;;;2.80;;
18090;SDS011;9172;49.948;9.208;2023-06-14T03:53:23;13.93;;;3.10;;
18090;SDS011;9172;49.948;9.208;2023-06-14T03:56:02;6.33;;;3.03;;
18090;SDS011;9172;49.948;9.208;2023-06-14T03:58:31;3.93;;;3.07;;
18090;SDS011;9172;49.948;9.208;2023-06-14T04:01:00;5.00;;;2.90;;
18090;SDS011;9172;49.948;9.208;2023-06-14T04:03:29;7.30;;;3.00;;
18090;SDS011;9172;49.948;9.208;2023-06-14T04:05:59;8.33;;;3.27;;
18090;SDS011;9172;49.948;9.208;2023-06-14T04:08:29;5.87;;;2.80;;
18090;SDS011;9172;49.948;9.208;2023-06-14T04:10:57;5.83;;;3.10;;
18090;SDS011;9172;49.948;9.208;2023-06-14T04:13:27;7.57;;;2.77;;
18090;SDS011;9172;49.948;9.208;2023-06-14T04:15:55;5.23;;;3.10;;
18090;SDS011;9172;49.948;9.208;2023-06-14T04:18:24;4.77;;;2.67;;
18090;SDS011;9172;49.948;9.208;2023-06-14T04:20:53;5.10;;;3.00;;
18090;SDS011;9172;49.948;9.208;2023-06-14T04:23:22;5.13;;;3.10;;
18090;SDS011;9172;49.948;9.208;2023-06-14T04:25:54;4.87;;;2.80;;
18090;SDS011;9172;49.948;9.208;2023-06-14T04:28:24;5.13;;;3.27;;
18090;SDS011;9172;49.948;9.208;2023-06-14T04:30:54;4.47;;;2.83;;
18090;SDS011;9172;49.948;9.208;2023-06-14T04:33:22;5.23;;;2.60;;
18090;SDS011;9172;49.948;9.208;2023-06-14T04:36:00;6.13;;;2.63;;
18090;SDS011;9172;49.948;9.208;2023-06-14T04:38:30;4.43;;;2.53;;
18090;SDS011;9172;49.948;9.208;2023-06-14T04:41:00;6.07;;;3.10;;
18090;SDS011;9172;49.948;9.208;2023-06-14T04:43:29;7.93;;;3.17;;
18090;SDS011;9172;49.948;9.208;2023-06-14T04:46:08;4.63;;;3.03;;
18090;SDS011;9172;49.948;9.208;2023-06-14T04:48:37;6.30;;;3.00;;
18090;SDS011;9172;49.948;9.208;2023-06-14T04:51:08;4.27;;;2.83;;
18090;SDS011;9172;49.948;9.208;2023-06-14T04:53:38;4.83;;;2.73;;
18090;SDS011;9172;49.948;9.208;2023-06-14T04:56:06;5.33;;;2.90;;
18090;SDS011;9172;49.948;9.208;2023-06-14T04:58:43;5.40;;;2.93;;
18090;SDS011;9172;49.948;9.208;2023-06-14T05:01:13;4.50;;;2.60;;
18090;SDS011;9172;49.948;9.208;2023-06-14T05:03:41;3.67;;;2.50;;
18090;SDS011;9172;49.948;9.208;2023-06-14T05:06:11;8.70;;;3.20;;
18090;SDS011;9172;49.948;9.208;2023-06-14T05:08:40;7.37;;;2.87;;
18090;SDS011;9172;49.948;9.208;2023-06-14T05:11:09;6.70;;;3.17;;
18090;SDS011;9172;49.948;9.208;2023-06-14T05:13:38;8.00;;;2.83;;
18090;SDS011;9172;49.948;9.208;2023-06-14T05:16:08;6.23;;;2.97;;
18090;SDS011;9172;49.948;9.208;2023-06-14T05:18:37;12.17;;;2.93;;
18090;SDS011;9172;49.948;9.208;2023-06-14T05:21:07;9.27;;;3.33;;
18090;SDS011;9172;49.948;9.208;2023-06-14T05:26:14;7.30;;;3.03;;
18090;SDS011;9172;49.948;9.208;2023-06-14T05:28:42;10.23;;;2.73;;
18090;SDS011;9172;49.948;9.208;2023-06-14T05:31:12;9.13;;;2.90;;
18090;SDS011;9172;49.948;9.208;2023-06-14T05:33:41;6.90;;;2.80;;
18090;SDS011;9172;49.948;9.208;2023-06-14T05:36:10;6.57;;;2.67;;
18090;SDS011;9172;49.948;9.208;2023-06-14T05:38:40;4.93;;;2.63;;
18090;SDS011;9172;49.948;9.208;2023-06-14T05:41:09;6.67;;;3.20;;
18090;SDS011;9172;49.948;9.208;2023-06-14T05:43:48;4.10;;;2.83;;
18090;SDS011;9172;49.948;9.208;2023-06-14T05:46:17;5.20;;;2.60;;
18090;SDS011;9172;49.948;9.208;2023-06-14T05:48:48;9.57;;;3.07;;
18090;SDS011;9172;49.948;9.208;2023-06-14T05:51:18;7.53;;;3.33;;
18090;SDS011;9172;49.948;9.208;2023-06-14T05:53:46;7.03;;;3.03;;
18090;SDS011;9172;49.948;9.208;2023-06-14T05:56:15;4.33;;;2.67;;
18090;SDS011;9172;49.948;9.208;2023-06-14T05:58:44;6.20;;;2.43;;
18090;SDS011;9172;49.948;9.208;2023-06-14T06:01:14;2.80;;;2.37;;
18090;SDS011;9172;49.948;9.208;2023-06-14T06:03:42;4.53;;;2.67;;
18090;SDS011;9172;49.948;9.208;2023-06-14T06:06:12;4.50;;;2.80;;
18090;SDS011;9172;49.948;9.208;2023-06-14T06:08:41;11.00;;;2.97;;
18090;SDS011;9172;49.948;9.208;2023-06-14T06:11:10;10.40;;;3.00;;
18090;SDS011;9172;49.948;9.208;2023-06-14T06:13:48;5.77;;;2.63;;
18090;SDS011;9172;49.948;9.208;2023-06-14T06:16:17;3.67;;;2.87;;
18090;SDS011;9172;49.948;9.208;2023-06-14T06:18:45;6.67;;;2.73;;
18090;SDS011;9172;49.948;9.208;2023-06-14T06:21:15;4.47;;;2.23;;
18090;SDS011;9172;49.948;9.208;2023-06-14T06:23:43;4.47;;;2.10;;
18090;SDS011;9172;49.948;9.208;2023-06-14T06:26:22;4.93;;;2.50;;
18090;SDS011;9172;49.948;9.208;2023-06-14T06:28:52;5.97;;;2.43;;
18090;SDS011;9172;49.948;9.208;2023-06-14T06:31:21;5.03;;;2.70;;
18090;SDS011;9172;49.948;9.208;2023-06-14T06:33:50;10.87;;;2.70;;
18090;SDS011;9172;49.948;9.208;2023-06-14T06:36:20;4.80;;;2.50;;
18090;SDS011;9172;49.948;9.208;2023-06-14T06:38:48;5.27;;;2.50;;
18090;SDS011;9172;49.948;9.208;2023-06-14T06:41:18;4.07;;;2.03;;
18090;SDS011;9172;49.948;9.208;2023-06-14T06:43:47;7.17;;;2.07;;
18090;SDS011;9172;49.948;9.208;2023-06-14T06:46:17;5.27;;;2.20;;
18090;SDS011;9172;49.948;9.208;2023-06-14T06:48:46;4.03;;;2.07;;
18090;SDS011;9172;49.948;9.208;2023-06-14T06:51:16;4.27;;;2.50;;
18090;SDS011;9172;49.948;9.208;2023-06-14T06:53:51;7.40;;;2.40;;
18090;SDS011;9172;49.948;9.208;2023-06-14T06:56:20;3.60;;;2.27;;
18090;SDS011;9172;49.948;9.208;2023-06-14T06:58:49;6.93;;;1.97;;
18090;SDS011;9172;49.948;9.208;2023-06-14T07:01:18;3.50;;;2.00;;
18090;SDS011;9172;49.948;9.208;2023-06-14T07:03:46;11.50;;;1.93;;
18090;SDS011;9172;49.948;9.208;2023-06-14T07:06:15;4.30;;;2.07;;
18090;SDS011;9172;49.948;9.208;2023-06-14T07:08:45;4.97;;;2.13;;
18090;SDS011;9172;49.948;9.208;2023-06-14T07:11:14;3.33;;;2.00;;
18090;SDS011;9172;49.948;9.208;2023-06-14T07:13:45;2.50;;;1.80;;
18090;SDS011;9172;49.948;9.208;2023-06-14T07:16:14;2.77;;;1.60;;
18090;SDS011;9172;49.948;9.208;2023-06-14T07:18:43;3.87;;;1.70;;
18090;SDS011;9172;49.948;9.208;2023-06-14T07:21:13;3.60;;;1.70;;
18090;SDS011;9172;49.948;9.208;2023-06-14T07:26:18;2.40;;;1.90;;
18090;SDS011;9172;49.948;9.208;2023-06-14T07:28:47;2.20;;;1.60;;
18090;SDS011;9172;49.948;9.208;2023-06-14T07:31:17;10.00;;;2.23;;
18090;SDS011;9172;49.948;9.208;2023-06-14T07:33:46;4.47;;;1.90;;
18090;SDS011;9172;49.948;9.208;2023-06-14T07:36:16;4.73;;;2.10;;
18090;SDS011;9172;49.948;9.208;2023-06-14T07:38:44;3.00;;;1.50;;
18090;SDS011;9172;49.948;9.208;2023-06-14T07:41:13;3.80;;;1.80;;
18090;SDS011;9172;49.948;9.208;2023-06-14T07:43:52;3.10;;;1.80;;
18090;SDS011;9172;49.948;9.208;2023-06-14T07:46:22;4.83;;;1.90;;
18090;SDS011;9172;49.948;9.208;2023-06-14T07:48:51;3.30;;;1.97;;
18090;SDS011;9172;49.948;9.208;2023-06-14T07:51:21;6.30;;;1.80;;
18090;SDS011;9172;49.948;9.208;2023-06-14T07:53:59;5.10;;;2.03;;
18090;SDS011;9172;49.948;9.208;2023-06-14T07:56:29;3.43;;;1.90;;
18090;SDS011;9172;49.948;9.208;2023-06-14T07:58:58;3.43;;;2.10;;
18090;SDS011;9172;49.948;9.208;2023-06-14T08:01:27;6.03;;;2.23;;
18090;SDS011;9172;49.948;9.208;2023-06-14T08:03:57;4.33;;;1.73;;
18090;SDS011;9172;49.948;9.208;2023-06-14T08:06:25;2.87;;;1.80;;
18090;SDS011;9172;49.948;9.208;2023-06-14T08:08:54;4.40;;;1.70;;
18090;SDS011;9172;49.948;9.208;2023-06-14T08:11:23;3.70;;;1.90;;
18090;SDS011;9172;49.948;9.208;2023-06-14T08:13:51;2.23;;;1.50;;
18090;SDS011;9172;49.948;9.208;2023-06-14T08:16:21;2.50;;;1.80;;
18090;SDS011;9172;49.948;9.208;2023-06-14T08:18:50;2.67;;;1.60;;
18090;SDS011;9172;49.948;9.208;2023-06-14T08:21:19;5.83;;;2.10;;
18090;SDS011;9172;49.948;9.208;2023-06-14T08:23:48;5.93;;;1.93;;
18090;SDS011;9172;49.948;9.208;2023-06-14T08:28:55;3.25;;;1.75;;
18090;SDS011;9172;49.948;9.208;2023-06-14T08:31:23;3.60;;;2.27;;
18090;SDS011;9172;49.948;9.208;2023-06-14T08:33:53;3.27;;;1.70;;
18090;SDS011;9172;49.948;9.208;2023-06-14T08:36:22;4.83;;;1.80;;
18090;SDS011;9172;49.948;9.208;2023-06-14T08:38:52;4.00;;;1.83;;
18090;SDS011;9172;49.948;9.208;2023-06-14T08:41:23;2.87;;;1.80;;
18090;SDS011;9172;49.948;9.208;2023-06-14T08:43:51;4.57;;;1.83;;
18090;SDS011;9172;49.948;9.208;2023-06-14T08:46:21;4.50;;;2.00;;
18090;SDS011;9172;49.948;9.208;2023-06-14T08:48:59;4.30;;;1.67;;
18090;SDS011;9172;49.948;9.208;2023-06-14T08:51:29;2.77;;;1.53;;
18090;SDS011;9172;49.948;9.208;2023-06-14T08:54:00;2.40;;;1.87;;
18090;SDS011;9172;49.948;9.208;2023-06-14T08:56:30;4.33;;;2.23;;
18090;SDS011;9172;49.948;9.208;2023-06-14T08:59:00;4.60;;;2.05;;
18090;SDS011;9172;49.948;9.208;2023-06-14T09:01:32;4.80;;;1.60;;
18090;SDS011;9172;49.948;9.208;2023-06-14T09:04:01;2.60;;;2.00;;
18090;SDS011;9172;49.948;9.208;2023-06-14T09:06:31;2.93;;;1.73;;
18090;SDS011;9172;49.948;9.208;2023-06-14T09:09:00;5.45;;;1.92;;
18090;SDS011;9172;49.948;9.208;2023-06-14T09:11:30;4.15;;;2.02;;
18090;SDS011;9172;49.948;9.208;2023-06-14T09:14:00;4.73;;;1.90;;
18090;SDS011;9172;49.948;9.208;2023-06-14T09:16:31;3.07;;;1.77;;
18090;SDS011;9172;49.948;9.208;2023-06-14T09:19:00;2.45;;;1.87;;
18090;SDS011;9172;49.948;9.208;2023-06-14T09:24:06;3.17;;;1.90;;
18090;SDS011;9172;49.948;9.208;2023-06-14T09:26:38;3.55;;;2.20;;
18090;SDS011;9172;49.948;9.208;2023-06-14T09:29:07;3.40;;;1.80;;
18090;SDS011;9172;49.948;9.208;2023-06-14T09:31:38;4.00;;;2.42;;
18090;SDS011;9172;49.948;9.208;2023-06-14T09:34:06;5.08;;;1.90;;
18090;SDS011;9172;49.948;9.208;2023-06-14T09:36:36;9.45;;;2.15;;
18090;SDS011;9172;49.948;9.208;2023-06-14T09:39:07;2.63;;;2.00;;
18090;SDS011;9172;49.948;9.208;2023-06-14T09:41:36;3.95;;;2.00;;
18090;SDS011;9172;49.948;9.208;2023-06-14T09:44:07;2.75;;;1.70;;
18090;SDS011;9172;49.948;9.208;2023-06-14T09:49:13;2.98;;;2.00;;
18090;SDS011;9172;49.948;9.208;2023-06-14T09:51:42;1.80;;;1.62;;
18090;SDS011;9172;49.948;9.208;2023-06-14T09:56:49;3.15;;;2.20;;
18090;SDS011;9172;49.948;9.208;2023-06-14T09:59:19;3.70;;;2.20;;
18090;SDS011;9172;49.948;9.208;2023-06-14T10:01:58;4.67;;;2.15;;
18090;SDS011;9172;49.948;9.208;2023-06-14T10:04:30;3.20;;;1.80;;
18090;SDS011;9172;49.948;9.208;2023-06-14T10:07:01;4.92;;;2.42;;
18090;SDS011;9172;49.948;9.208;2023-06-14T10:09:31;5.78;;;2.50;;
18090;SDS011;9172;49.948;9.208;2023-06-14T10:12:02;3.15;;;1.80;;
18090;SDS011;9172;49.948;9.208;2023-06-14T10:14:32;9.35;;;1.85;;
18090;SDS011;9172;49.948;9.208;2023-06-14T10:17:03;3.12;;;1.90;;
18090;SDS011;9172;49.948;9.208;2023-06-14T10:19:34;5.28;;;2.08;;
18090;SDS011;9172;49.948;9.208;2023-06-14T10:22:08;3.72;;;1.92;;
18090;SDS011;9172;49.948;9.208;2023-06-14T10:24:40;5.25;;;1.77;;
18090;SDS011;9172;49.948;9.208;2023-06-14T10:27:23;2.98;;;2.05;;
18090;SDS011;9172;49.948;9.208;2023-06-14T10:30:05;2.72;;;1.80;;
18090;SDS011;9172;49.948;9.208;2023-06-14T10:35:15;3.40;;;1.87;;
18090;SDS011;9172;49.948;9.208;2023-06-14T10:37:46;3.20;;;1.90;;
18090;SDS011;9172;49.948;9.208;2023-06-14T10:43:18;5.53;;;1.98;;
18090;SDS011;9172;49.948;9.208;2023-06-14T10:48:43;3.27;;;2.05;;
18090;SDS011;9172;49.948;9.208;2023-06-14T10:51:19;4.00;;;1.60;;
18090;SDS011;9172;49.948;9.208;2023-06-14T10:53:48;3.63;;;1.70;;
18090;SDS011;9172;49.948;9.208;2023-06-14T10:56:28;2.10;;;1.87;;
18090;SDS011;9172;49.948;9.208;2023-06-14T10:58:58;4.40;;;2.35;;
18090;SDS011;9172;49.948;9.208;2023-06-14T11:01:31;3.27;;;1.97;;
18090;SDS011;9172;49.948;9.208;2023-06-14T11:04:07;6.70;;;2.25;;
18090;SDS011;9172;49.948;9.208;2023-06-14T11:06:46;4.85;;;1.95;;
18090;SDS011;9172;49.948;9.208;2023-06-14T11:12:28;6.12;;;2.05;;
18090;SDS011;9172;49.948;9.208;2023-06-14T11:15:02;3.72;;;2.05;;
18090;SDS011;9172;49.948;9.208;2023-06-14T11:17:33;2.92;;;1.80;;
18090;SDS011;9172;49.948;9.208;2023-06-14T11:20:08;3.90;;;1.80;;
18090;SDS011;9172;49.948;9.208;2023-06-14T11:22:39;2.65;;;1.60;;
18090;SDS011;9172;49.948;9.208;2023-06-14T11:25:09;7.70;;;1.90;;
18090;SDS011;9172;49.948;9.208;2023-06-14T11:27:38;3.00;;;1.65;;
18090;SDS011;9172;49.948;9.208;2023-06-14T11:30:09;7.03;;;1.85;;
18090;SDS011;9172;49.948;9.208;2023-06-14T11:32:40;5.22;;;2.00;;
18090;SDS011;9172;49.948;9.208;2023-06-14T11:35:09;2.55;;;1.80;;
18090;SDS011;9172;49.948;9.208;2023-06-14T11:37:38;2.15;;;1.40;;
18090;SDS011;9172;49.948;9.208;2023-06-14T11:40:09;4.17;;;1.90;;
18090;SDS011;9172;49.948;9.208;2023-06-14T11:42:40;3.12;;;1.57;;
18090;SDS011;9172;49.948;9.208;2023-06-14T11:45:10;1.85;;;1.62;;
18090;SDS011;9172;49.948;9.208;2023-06-14T11:47:39;7.58;;;1.62;;
18090;SDS011;9172;49.948;9.208;2023-06-14T11:50:09;2.35;;;1.60;;
18090;SDS011;9172;49.948;9.208;2023-06-14T11:52:37;2.62;;;1.57;;
18090;SDS011;9172;49.948;9.208;2023-06-14T11:55:07;2.62;;;1.80;;
18090;SDS011;9172;49.948;9.208;2023-06-14T11:57:37;2.42;;;1.80;;
18090;SDS011;9172;49.948;9.208;2023-06-14T12:00:07;4.95;;;1.95;;
18090;SDS011;9172;49.948;9.208;2023-06-14T12:02:38;5.35;;;1.90;;
18090;SDS011;9172;49.948;9.208;2023-06-14T12:05:08;2.33;;;1.65;;
18090;SDS011;9172;49.948;9.208;2023-06-14T12:07:37;2.12;;;1.60;;
18090;SDS011;9172;49.948;9.208;2023-06-14T12:10:07;5.53;;;2.08;;
18090;SDS011;9172;49.948;9.208;2023-06-14T12:12:37;5.05;;;1.50;;
18090;SDS011;9172;49.948;9.208;2023-06-14T12:15:07;4.50;;;1.60;;
18090;SDS011;9172;49.948;9.208;2023-06-14T12:17:38;2.17;;;1.85;;
18090;SDS011;9172;49.948;9.208;2023-06-14T12:20:11;2.95;;;1.72;;
18090;SDS011;9172;49.948;9.208;2023-06-14T12:22:51;5.70;;;2.30;;
18090;SDS011;9172;49.948;9.208;2023-06-14T12:25:27;2.75;;;1.62;;
18090;SDS011;9172;49.948;9.208;2023-06-14T12:27:57;7.73;;;1.80;;
18090;SDS011;9172;49.948;9.208;2023-06-14T12:30:28;2.08;;;1.60;;
18090;SDS011;9172;49.948;9.208;2023-06-14T12:32:56;4.58;;;1.87;;
18090;SDS011;9172;49.948;9.208;2023-06-14T12:35:26;3.83;;;1.42;;
18090;SDS011;9172;49.948;9.208;2023-06-14T12:37:55;2.50;;;1.80;;
18090;SDS011;9172;49.948;9.208;2023-06-14T12:40:25;4.12;;;1.70;;
18090;SDS011;9172;49.948;9.208;2023-06-14T12:42:54;2.33;;;1.50;;
18090;SDS011;9172;49.948;9.208;2023-06-14T12:45:32;2.77;;;1.72;;
18090;SDS011;9172;49.948;9.208;2023-06-14T12:48:01;2.08;;;1.50;;
18090;SDS011;9172;49.948;9.208;2023-06-14T12:50:30;1.92;;;1.40;;
18090;SDS011;9172;49.948;9.208;2023-06-14T12:53:00;4.80;;;1.85;;
18090;SDS011;9172;49.948;9.208;2023-06-14T12:55:28;2.12;;;1.55;;
18090;SDS011;9172;49.948;9.208;2023-06-14T12:57:57;5.50;;;1.92;;
18090;SDS011;9172;49.948;9.208;2023-06-14T13:00:27;1.47;;;1.35;;
18090;SDS011;9172;49.948;9.208;2023-06-14T13:02:57;3.17;;;1.62;;
18090;SDS011;9172;49.948;9.208;2023-06-14T13:05:35;2.62;;;1.52;;
18090;SDS011;9172;49.948;9.208;2023-06-14T13:08:07;2.45;;;1.37;;
18090;SDS011;9172;49.948;9.208;2023-06-14T13:10:36;4.03;;;1.67;;
18090;SDS011;9172;49.948;9.208;2023-06-14T13:13:04;6.75;;;1.70;;
18090;SDS011;9172;49.948;9.208;2023-06-14T13:15:34;2.55;;;1.50;;
18090;SDS011;9172;49.948;9.208;2023-06-14T13:18:03;3.87;;;1.60;;
18090;SDS011;9172;49.948;9.208;2023-06-14T13:20:40;3.25;;;1.72;;
18090;SDS011;9172;49.948;9.208;2023-06-14T13:23:08;4.97;;;1.62;;
18090;SDS011;9172;49.948;9.208;2023-06-14T13:25:38;2.12;;;1.40;;
18090;SDS011;9172;49.948;9.208;2023-06-14T13:28:07;2.55;;;1.57;;
18090;SDS011;9172;49.948;9.208;2023-06-14T13:30:36;2.62;;;1.47;;
18090;SDS011;9172;49.948;9.208;2023-06-14T13:33:13;5.35;;;1.60;;
18090;SDS011;9172;49.948;9.208;2023-06-14T13:35:42;2.33;;;1.70;;
18090;SDS011;9172;49.948;9.208;2023-06-14T13:40:47;3.05;;;1.47;;
18090;SDS011;9172;49.948;9.208;2023-06-14T13:43:16;3.67;;;1.70;;
18090;SDS011;9172;49.948;9.208;2023-06-14T13:48:31;7.10;;;1.60;;
18090;SDS011;9172;49.948;9.208;2023-06-14T13:51:00;3.35;;;1.47;;
18090;SDS011;9172;49.948;9.208;2023-06-14T13:53:30;1.35;;;1.20;;
18090;SDS011;9172;49.948;9.208;2023-06-14T13:55:59;2.55;;;1.82;;
18090;SDS011;9172;49.948;9.208;2023-06-14T13:58:37;2.50;;;1.42;;
18090;SDS011;9172;49.948;9.208;2023-06-14T14:01:08;6.80;;;1.87;;
18090;SDS011;9172;49.948;9.208;2023-06-14T14:03:37;2.33;;;1.42;;
18090;SDS011;9172;49.948;9.208;2023-06-14T14:06:06;3.70;;;1.55;;
18090;SDS011;9172;49.948;9.208;2023-06-14T14:08:36;1.60;;;1.42;;
18090;SDS011;9172;49.948;9.208;2023-06-14T14:11:05;2.67;;;1.32;;
18090;SDS011;9172;49.948;9.208;2023-06-14T14:13:34;2.47;;;1.50;;
18090;SDS011;9172;49.948;9.208;2023-06-14T14:16:04;1.75;;;1.35;;
18090;SDS011;9172;49.948;9.208;2023-06-14T14:18:33;4.72;;;1.52;;
18090;SDS011;9172;49.948;9.208;2023-06-14T14:21:10;4.08;;;1.42;;
18090;SDS011;9172;49.948;9.208;2023-06-14T14:23:39;1.80;;;1.52;;
18090;SDS011;9172;49.948;9.208;2023-06-14T14:26:08;3.37;;;1.50;;
18090;SDS011;9172;49.948;9.208;2023-06-14T14:28:36;2.83;;;1.67;;
18090;SDS011;9172;49.948;9.208;2023-06-14T14:31:07;4.03;;;1.70;;
18090;SDS011;9172;49.948;9.208;2023-06-14T14:33:35;5.33;;;1.65;;
18090;SDS011;9172;49.948;9.208;2023-06-14T14:36:05;2.87;;;1.45;;
18090;SDS011;9172;49.948;9.208;2023-06-14T14:38:34;4.97;;;1.50;;
18090;SDS011;9172;49.948;9.208;2023-06-14T14:41:03;2.50;;;1.47;;
18090;SDS011;9172;49.948;9.208;2023-06-14T14:43:32;6.30;;;1.75;;
18090;SDS011;9172;49.948;9.208;2023-06-14T14:46:01;2.30;;;1.50;;
18090;SDS011;9172;49.948;9.208;2023-06-14T14:48:29;4.20;;;1.55;;
18090;SDS011;9172;49.948;9.208;2023-06-14T14:50:59;2.40;;;1.47;;
18090;SDS011;9172;49.948;9.208;2023-06-14T14:53:29;2.50;;;1.40;;
18090;SDS011;9172;49.948;9.208;2023-06-14T14:55:57;3.58;;;1.60;;
18090;SDS011;9172;49.948;9.208;2023-06-14T14:58:27;2.72;;;1.80;;
18090;SDS011;9172;49.948;9.208;2023-06-14T15:00:56;2.10;;;1.22;;
18090;SDS011;9172;49.948;9.208;2023-06-14T15:03:26;2.45;;;1.40;;
18090;SDS011;9172;49.948;9.208;2023-06-14T15:05:56;4.12;;;1.50;;
18090;SDS011;9172;49.948;9.208;2023-06-14T15:08:25;2.77;;;1.52;;
18090;SDS011;9172;49.948;9.208;2023-06-14T15:10:54;2.27;;;1.47;;
18090;SDS011;9172;49.948;9.208;2023-06-14T15:13:23;2.47;;;1.67;;
18090;SDS011;9172;49.948;9.208;2023-06-14T15:15:53;1.85;;;1.32;;
18090;SDS011;9172;49.948;9.208;2023-06-14T15:18:31;3.25;;;1.62;;
18090;SDS011;9172;49.948;9.208;2023-06-14T15:21:00;1.62;;;1.30;;
18090;SDS011;9172;49.948;9.208;2023-06-14T15:23:30;4.33;;;1.87;;
18090;SDS011;9172;49.948;9.208;2023-06-14T15:25:58;2.75;;;1.40;;
18090;SDS011;9172;49.948;9.208;2023-06-14T15:28:27;3.05;;;1.50;;
18090;SDS011;9172;49.948;9.208;2023-06-14T15:30:58;1.98;;;1.30;;
18090;SDS011;9172;49.948;9.208;2023-06-14T15:33:26;3.72;;;1.80;;
18090;SDS011;9172;49.948;9.208;2023-06-14T15:35:56;1.50;;;1.40;;
18090;SDS011;9172;49.948;9.208;2023-06-14T15:41:01;2.40;;;1.42;;
18090;SDS011;9172;49.948;9.208;2023-06-14T15:43:30;2.55;;;1.60;;
18090;SDS011;9172;49.948;9.208;2023-06-14T15:45:59;4.65;;;1.52;;
18090;SDS011;9172;49.948;9.208;2023-06-14T15:48:28;1.70;;;1.42;;
18090;SDS011;9172;49.948;9.208;2023-06-14T15:50:57;2.22;;;1.37;;
18090;SDS011;9172;49.948;9.208;2023-06-14T15:56:04;3.62;;;1.60;;
18090;SDS011;9172;49.948;9.208;2023-06-14T15:58:33;2.95;;;1.50;;
18090;SDS011;9172;49.948;9.208;2023-06-14T16:01:02;2.40;;;1.70;;
18090;SDS011;9172;49.948;9.208;2023-06-14T16:03:32;2.98;;;1.42;;